Terminal Aerodrome Forecast
Issued by NWS

Home | Current Version | Previous Version | Text Only | Print | Product List | Glossary On
Versions: 1 2 3 4 5 6 7 8 9 10 11 12
041
FTUS42 TJSJ 251120
TAFKPK
TAF
TKPK 251120Z 2512/2612 VRB02KT P6SM VCSH SCT019
     FM251430 07010KT P6SM FEW024
     FM252300 04006KT P6SM FEW020=

USA.gov is the U.S. government's official web portal to all federal, state and local government web resources and services.